createdAt,value
2018-11-20T00:02:32.384Z,4.40
2018-11-20T00:05:32.422Z,4.40
2018-11-20T00:08:32.035Z,4.40
2018-11-20T00:11:20.371Z,4.40
2018-11-20T00:14:27.731Z,4.30
2018-11-20T00:17:30.375Z,4.30
2018-11-20T00:20:18.747Z,4.40
2018-11-20T00:23:26.062Z,4.30
2018-11-20T00:26:31.758Z,4.40
2018-11-20T00:29:22.602Z,4.30
2018-11-20T00:32:25.570Z,4.30
2018-11-20T00:35:42.977Z,4.30
2018-11-20T00:38:42.803Z,4.30
2018-11-20T00:41:42.809Z,4.30
2018-11-20T00:44:43.518Z,4.30
2018-11-20T00:47:31.878Z,4.30
2018-11-20T00:50:39.183Z,4.30
2018-11-20T00:53:39.133Z,4.30
2018-11-20T00:56:32.550Z,4.30
2018-11-20T00:59:32.061Z,4.20
2018-11-20T01:02:31.797Z,4.30
2018-11-20T01:05:31.254Z,4.20
2018-11-20T01:08:31.231Z,4.20
2018-11-20T01:11:37.165Z,4.20
2018-11-20T01:14:37.424Z,4.30
2018-11-20T01:17:37.639Z,4.20
2018-11-20T01:20:26.193Z,4.20
2018-11-20T01:23:33.545Z,4.20
2018-11-20T01:26:21.867Z,4.20
2018-11-20T01:29:29.217Z,4.20
2018-11-20T01:32:29.237Z,4.20
2018-11-20T01:38:43.052Z,4.20
2018-11-20T01:41:34.970Z,4.20
2018-11-20T01:44:35.081Z,4.20
2018-11-20T01:47:35.046Z,4.20
2018-11-20T01:50:40.456Z,4.20
2018-11-20T01:53:42.989Z,4.20
2018-11-20T01:59:58.925Z,4.20
2018-11-20T02:02:48.436Z,4.20
2018-11-20T02:05:47.840Z,4.10
2018-11-20T02:08:47.938Z,4.10
2018-11-20T02:11:41.872Z,4.10
2018-11-20T02:14:32.664Z,4.10
2018-11-20T02:17:32.392Z,4.10
2018-11-20T02:20:38.281Z,4.10
2018-11-20T02:23:26.640Z,4.10
2018-11-20T02:26:33.988Z,4.20
2018-11-20T02:29:34.092Z,4.20
2018-11-20T02:32:34.396Z,4.10
2018-11-20T02:35:25.275Z,4.10
2018-11-20T02:38:24.862Z,4.10
2018-11-20T02:41:30.492Z,4.10
2018-11-20T02:44:29.944Z,4.10
2018-11-20T02:47:29.988Z,4.10
2018-11-20T02:50:29.859Z,4.10
2018-11-20T02:53:18.260Z,4.10
2018-11-20T02:56:21.507Z,4.10
2018-11-20T02:59:17.859Z,4.10
2018-11-20T03:02:20.591Z,4.10
2018-11-20T03:05:20.539Z,4.10
2018-11-20T03:08:20.194Z,4.10
2018-11-20T03:11:20.127Z,4.10
2018-11-20T03:14:19.709Z,4.10
2018-11-20T03:17:22.237Z,4.10
2018-11-20T03:20:21.856Z,4.10
2018-11-20T03:23:10.215Z,4.00
2018-11-20T03:26:19.511Z,4.10
2018-11-20T03:29:18.988Z,4.10
2018-11-20T03:32:08.364Z,4.10
2018-11-20T03:35:08.351Z,4.00
2018-11-20T03:38:14.599Z,4.00
2018-11-20T03:41:02.966Z,4.00
2018-11-20T03:44:10.313Z,4.10
2018-11-20T03:47:02.255Z,4.00
2018-11-20T03:50:08.151Z,4.00
2018-11-20T03:53:14.403Z,4.00
2018-11-20T03:59:23.898Z,4.00
2018-11-20T04:02:12.239Z,4.00
2018-11-20T04:05:19.591Z,4.00
2018-11-20T04:08:19.263Z,4.00
2018-11-20T04:11:26.578Z,4.00
2018-11-20T04:14:26.511Z,4.00
2018-11-20T04:17:26.135Z,4.00
2018-11-20T04:20:24.846Z,4.00
2018-11-20T04:23:32.163Z,4.00
2018-11-20T04:26:32.250Z,4.00
2018-11-20T04:29:32.231Z,3.90
2018-11-20T04:32:31.870Z,3.90
2018-11-20T04:35:31.206Z,3.90
2018-11-20T04:38:19.590Z,3.90
2018-11-20T04:41:26.938Z,3.90
2018-11-20T04:44:26.446Z,3.90
2018-11-20T04:50:24.146Z,3.80
2018-11-20T04:53:12.531Z,3.80
2018-11-20T04:56:19.855Z,3.80
2018-11-20T04:59:20.162Z,3.80
2018-11-20T05:02:20.418Z,3.80
2018-11-20T05:05:00.618Z,3.80
2018-11-20T05:07:59.650Z,3.80
2018-11-20T05:10:59.185Z,3.80
2018-11-20T05:13:59.062Z,3.80
2018-11-20T05:16:47.373Z,3.70
2018-11-20T05:19:54.718Z,3.70
2018-11-20T05:23:00.481Z,3.70
2018-11-20T05:26:03.458Z,3.70
2018-11-20T05:29:02.881Z,3.60
2018-11-20T05:31:51.258Z,3.60
2018-11-20T05:34:58.602Z,3.50
2018-11-20T05:38:04.201Z,3.40
2018-11-20T05:41:04.301Z,3.40
2018-11-20T05:44:04.209Z,3.30
2018-11-20T05:47:02.058Z,3.30
2018-11-20T05:50:02.221Z,3.20
2018-11-20T05:53:01.661Z,3.20
2018-11-20T05:56:01.641Z,3.10
2018-11-20T05:59:01.137Z,3.10
2018-11-20T06:02:00.705Z,3.10
2018-11-20T06:04:48.776Z,3.10
2018-11-20T06:07:39.381Z,3.10
2018-11-20T06:10:39.200Z,3.10
2018-11-20T06:13:39.204Z,3.10
2018-11-20T06:16:37.765Z,3.20
2018-11-20T06:19:37.473Z,3.20
2018-11-20T06:22:37.271Z,3.30
2018-11-20T06:25:40.017Z,3.30
2018-11-20T06:28:40.538Z,3.30
2018-11-20T06:31:45.840Z,3.30
2018-11-20T06:34:48.860Z,3.30
2018-11-20T06:37:48.540Z,3.40
2018-11-20T06:40:53.937Z,3.40
2018-11-20T06:43:51.820Z,3.40
2018-11-20T06:46:51.813Z,3.40
2018-11-20T06:49:47.152Z,3.40
2018-11-20T06:52:46.694Z,3.40
2018-11-20T06:55:48.795Z,3.40
2018-11-20T06:58:49.845Z,3.40
2018-11-20T07:01:46.997Z,3.50
2018-11-20T07:04:46.777Z,3.50
2018-11-20T07:07:46.494Z,3.50
2018-11-20T07:10:46.723Z,3.50
2018-11-20T07:13:37.199Z,3.50
2018-11-20T07:16:45.421Z,3.50
2018-11-20T07:19:45.490Z,3.50
2018-11-20T07:25:47.276Z,3.50
2018-11-20T07:28:47.170Z,3.50
2018-11-20T07:31:50.543Z,3.50
2018-11-20T07:34:38.940Z,3.50
2018-11-20T07:37:46.283Z,3.50
2018-11-20T07:40:37.484Z,3.50
2018-11-20T07:43:37.057Z,3.50
2018-11-20T07:46:36.513Z,3.60
2018-11-20T07:49:36.315Z,3.60
2018-11-20T07:52:36.239Z,3.60
2018-11-20T07:55:36.093Z,3.60
2018-11-20T07:58:28.844Z,3.60
2018-11-20T08:01:28.322Z,3.50
2018-11-20T08:04:21.555Z,3.50
2018-11-20T08:07:18.067Z,3.60
2018-11-20T08:10:09.120Z,3.60
2018-11-20T08:13:08.579Z,3.70
2018-11-20T08:15:57.024Z,3.70
2018-11-20T08:19:04.270Z,3.60
2018-11-20T08:22:10.730Z,3.60
2018-11-20T08:25:10.446Z,3.60
2018-11-20T08:28:04.034Z,3.60
2018-11-20T08:31:03.561Z,3.60
2018-11-20T08:34:06.729Z,3.60
2018-11-20T08:37:06.298Z,3.70
2018-11-20T08:40:05.844Z,3.70
2018-11-20T08:42:54.232Z,3.70
2018-11-20T08:46:01.550Z,3.70
2018-11-20T08:49:01.738Z,3.70
2018-11-20T08:52:04.430Z,3.70
2018-11-20T08:55:04.234Z,3.70
2018-11-20T08:58:04.546Z,3.70
2018-11-20T09:01:03.942Z,3.70
2018-11-20T09:04:08.126Z,3.70
2018-11-20T09:06:56.458Z,3.70
2018-11-20T09:10:03.844Z,3.70
2018-11-20T09:13:03.693Z,3.70
2018-11-20T09:16:03.669Z,3.80
2018-11-20T09:19:03.525Z,3.80
2018-11-20T09:22:03.249Z,3.80
2018-11-20T09:25:03.076Z,3.80
2018-11-20T09:28:03.399Z,3.70
2018-11-20T09:30:53.273Z,3.70
2018-11-20T09:33:52.897Z,3.70
2018-11-20T09:36:52.369Z,3.70
2018-11-20T09:39:40.733Z,3.80
2018-11-20T09:42:48.381Z,3.80
2018-11-20T09:46:00.581Z,3.70
2018-11-20T09:49:07.925Z,3.80
2018-11-20T09:52:08.248Z,3.80
2018-11-20T09:55:07.836Z,3.90
2018-11-20T09:58:04.762Z,3.90
2018-11-20T10:01:04.215Z,4.00
2018-11-20T10:03:54.957Z,4.00
2018-11-20T10:10:02.952Z,4.10
2018-11-20T10:13:08.649Z,4.10
2018-11-20T10:16:01.020Z,4.20
2018-11-20T10:18:41.345Z,4.20
2018-11-20T10:21:48.664Z,4.10
2018-11-20T10:24:56.059Z,4.10
2018-11-20T10:27:55.364Z,4.10
2018-11-20T10:30:55.308Z,4.20
2018-11-20T10:33:55.312Z,4.20
2018-11-20T10:36:54.768Z,4.20
2018-11-20T10:39:54.656Z,4.10
2018-11-20T10:42:54.480Z,4.10
2018-11-20T10:45:56.628Z,4.10
2018-11-20T10:48:56.792Z,4.20
2018-11-20T10:54:47.256Z,4.20
2018-11-20T10:57:49.856Z,4.20
2018-11-20T11:00:49.711Z,4.20
2018-11-20T11:03:49.647Z,4.20
2018-11-20T11:06:49.642Z,4.20
2018-11-20T11:09:49.015Z,4.30
2018-11-20T11:12:48.870Z,4.30
2018-11-20T11:15:41.835Z,4.40
2018-11-20T11:18:43.891Z,4.40
2018-11-20T11:21:33.403Z,4.50
2018-11-20T11:24:21.816Z,4.50
2018-11-20T11:27:29.164Z,4.60
2018-11-20T11:30:36.529Z,4.60
2018-11-20T11:33:36.117Z,4.80
2018-11-20T11:36:35.929Z,4.90
2018-11-20T11:39:25.517Z,5.20
2018-11-20T11:42:13.905Z,5.60
2018-11-20T11:45:13.363Z,6.10
2018-11-20T11:48:12.993Z,6.30
2018-11-20T11:51:10.160Z,6.40
2018-11-20T11:54:09.575Z,6.40
2018-11-20T11:57:09.012Z,6.30
2018-11-20T12:00:08.530Z,6.10
2018-11-20T12:06:07.299Z,5.90
2018-11-20T12:09:03.401Z,5.70
2018-11-20T12:12:03.300Z,5.60
2018-11-20T12:15:09.455Z,5.60
2018-11-20T12:18:08.888Z,5.60
2018-11-20T12:21:08.832Z,5.50
2018-11-20T12:24:08.570Z,5.50
2018-11-20T12:27:08.871Z,5.40
2018-11-20T12:30:13.415Z,5.20
2018-11-20T12:33:11.844Z,5.10
2018-11-20T12:36:12.336Z,5.10
2018-11-20T12:39:11.884Z,5.00
2018-11-20T12:42:02.578Z,5.00
2018-11-20T12:45:01.558Z,5.00
2018-11-20T12:48:03.858Z,5.00
2018-11-20T12:51:02.039Z,5.00
2018-11-20T12:54:01.975Z,4.90
2018-11-20T12:56:55.882Z,4.90
2018-11-20T12:59:55.443Z,4.90
2018-11-20T13:02:43.799Z,4.80
2018-11-20T13:05:51.143Z,4.80
2018-11-20T13:08:50.558Z,4.80
2018-11-20T13:11:38.955Z,4.70
2018-11-20T13:14:46.271Z,4.70
2018-11-20T13:17:49.228Z,4.60
2018-11-20T13:20:31.131Z,4.60
2018-11-20T13:23:39.135Z,4.50
2018-11-20T13:26:46.474Z,4.50
2018-11-20T13:29:52.283Z,4.50
2018-11-20T13:32:54.806Z,4.40
2018-11-20T13:36:00.426Z,4.40
2018-11-20T13:39:02.997Z,4.40
2018-11-20T13:42:03.282Z,4.30
2018-11-20T13:45:03.131Z,4.20
2018-11-20T13:48:02.651Z,4.20
2018-11-20T13:50:51.868Z,4.20
2018-11-20T13:53:39.633Z,4.20
2018-11-20T13:56:46.982Z,4.20
2018-11-20T13:59:47.186Z,4.10
2018-11-20T14:02:53.018Z,4.10
2018-11-20T14:05:58.898Z,4.10
2018-11-20T14:08:59.210Z,4.00
2018-11-20T14:11:52.694Z,4.00
2018-11-20T14:14:52.134Z,4.00
2018-11-20T14:17:52.156Z,4.00
2018-11-20T14:20:48.627Z,3.90
2018-11-20T14:23:47.998Z,3.80
2018-11-20T14:26:48.085Z,3.80
2018-11-20T14:29:47.785Z,3.70
2018-11-20T14:32:47.427Z,3.70
2018-11-20T14:35:54.767Z,3.60
2018-11-20T14:38:56.487Z,3.60
2018-11-20T14:41:45.825Z,3.50
2018-11-20T14:44:49.101Z,3.50
2018-11-20T14:47:49.066Z,3.40
2018-11-20T14:50:49.378Z,3.30
2018-11-20T14:53:56.632Z,3.30
2018-11-20T14:56:52.111Z,3.20
2018-11-20T14:59:52.285Z,3.20
2018-11-20T15:06:01.784Z,3.10
2018-11-20T15:09:00.181Z,3.00
2018-11-20T15:11:50.369Z,3.00
2018-11-20T15:14:53.541Z,3.00
2018-11-20T15:17:56.296Z,3.00
2018-11-20T15:20:55.672Z,2.90
2018-11-20T15:27:02.713Z,2.80
2018-11-20T15:30:02.221Z,2.80
2018-11-20T15:33:07.428Z,2.80
2018-11-20T15:36:07.625Z,2.80
2018-11-20T15:39:11.852Z,2.70
2018-11-20T15:42:06.598Z,2.70
2018-11-20T15:45:07.536Z,2.60
2018-11-20T15:51:18.644Z,2.60
2018-11-20T15:54:18.171Z,2.60
2018-11-20T15:57:17.668Z,2.50
2018-11-20T16:00:17.185Z,2.40
2018-11-20T16:03:22.952Z,2.50
2018-11-20T16:06:16.212Z,2.40
2018-11-20T16:09:04.589Z,2.40
2018-11-20T16:12:11.916Z,2.40
2018-11-20T16:15:11.708Z,2.40
2018-11-20T16:18:11.536Z,2.30
2018-11-20T16:21:11.496Z,2.30
2018-11-20T16:24:10.979Z,2.30
2018-11-20T16:26:59.311Z,2.20
2018-11-20T16:30:06.650Z,2.20
2018-11-20T16:33:06.542Z,2.10
2018-11-20T16:36:06.899Z,2.10
2018-11-20T16:39:06.532Z,2.10
2018-11-20T16:41:55.483Z,2.10
2018-11-20T16:44:54.803Z,2.00
2018-11-20T16:47:51.447Z,2.00
2018-11-20T16:50:51.027Z,2.00
2018-11-20T16:53:48.483Z,2.00
2018-11-20T16:56:55.847Z,1.90
2018-11-20T16:59:56.153Z,1.90
2018-11-20T17:02:55.515Z,1.90
2018-11-20T17:05:55.631Z,1.90
2018-11-20T17:09:01.695Z,1.90
2018-11-20T17:11:50.071Z,1.80
2018-11-20T17:14:57.386Z,1.80
2018-11-20T17:17:49.546Z,1.80
2018-11-20T17:24:09.138Z,1.80
2018-11-20T17:27:09.339Z,1.80
2018-11-20T17:30:09.387Z,1.70
2018-11-20T17:33:09.355Z,1.70
2018-11-20T17:36:12.111Z,1.70
2018-11-20T17:39:00.498Z,1.70
2018-11-20T17:42:07.866Z,1.70
2018-11-20T17:45:10.555Z,1.60
2018-11-20T17:48:01.983Z,1.60
2018-11-20T17:51:04.579Z,1.60
2018-11-20T17:53:54.062Z,1.60
2018-11-20T17:56:57.137Z,1.60
2018-11-20T17:59:47.367Z,1.50
2018-11-20T18:02:47.394Z,1.50
2018-11-20T18:05:47.346Z,1.50
2018-11-20T18:08:25.929Z,1.50
2018-11-20T18:11:33.278Z,1.50
2018-11-20T18:14:40.605Z,1.50
2018-11-20T18:17:30.254Z,1.40
2018-11-20T18:20:29.755Z,1.50
2018-11-20T18:23:18.122Z,1.40
2018-11-20T18:26:25.933Z,1.40
2018-11-20T18:32:38.613Z,1.40
2018-11-20T18:35:38.162Z,1.40
2018-11-20T18:38:26.493Z,1.40
2018-11-20T18:41:33.845Z,1.30
2018-11-20T18:44:36.882Z,1.30
2018-11-20T18:47:36.721Z,1.30
2018-11-20T18:50:42.124Z,1.30
2018-11-20T18:53:44.917Z,1.30
2018-11-20T18:56:47.269Z,1.30
2018-11-20T18:59:47.377Z,1.30
2018-11-20T19:02:53.101Z,1.30
2018-11-20T19:05:53.385Z,1.20
2018-11-20T19:08:55.756Z,1.30
2018-11-20T19:12:03.255Z,1.30
2018-11-20T19:14:55.594Z,1.20
2018-11-20T19:18:01.548Z,1.20
2018-11-20T19:21:01.645Z,1.20
2018-11-20T19:24:01.477Z,1.20
2018-11-20T19:26:50.737Z,1.10
2018-11-20T19:29:56.504Z,1.10
2018-11-20T19:33:01.978Z,1.10
2018-11-20T19:36:05.175Z,1.10
2018-11-20T19:38:53.553Z,1.10
2018-11-20T19:42:00.869Z,1.10
2018-11-20T19:45:08.191Z,1.00
2018-11-20T19:48:08.232Z,1.10
2018-11-20T19:51:08.200Z,1.00
2018-11-20T19:53:56.568Z,1.00
2018-11-20T19:57:03.920Z,1.00
2018-11-20T20:00:03.704Z,1.00
2018-11-20T20:03:03.080Z,1.00
2018-11-20T20:06:02.728Z,1.00
2018-11-20T20:09:08.404Z,0.90
2018-11-20T20:12:08.371Z,0.90
2018-11-20T20:15:07.692Z,0.90
2018-11-20T20:18:07.492Z,0.90
2018-11-20T20:21:10.528Z,0.90
2018-11-20T20:24:09.919Z,0.90
2018-11-20T20:27:08.163Z,0.90
2018-11-20T20:30:08.276Z,0.80
2018-11-20T20:33:07.880Z,0.80
2018-11-20T20:36:02.444Z,0.80
2018-11-20T20:38:56.564Z,0.80
2018-11-20T20:41:56.028Z,0.80
2018-11-20T20:44:55.539Z,0.80
2018-11-20T20:47:48.850Z,0.80
2018-11-20T20:50:48.515Z,0.70
2018-11-20T20:53:48.211Z,0.80
2018-11-20T20:56:48.050Z,0.80
2018-11-20T20:59:47.107Z,0.70
2018-11-20T21:02:46.963Z,0.70
2018-11-20T21:05:37.498Z,0.70
2018-11-20T21:08:45.238Z,0.70
2018-11-20T21:11:44.414Z,0.70
2018-11-20T21:14:32.778Z,0.70
2018-11-20T21:17:40.082Z,0.70
2018-11-20T21:20:42.719Z,0.90
2018-11-20T21:23:50.090Z,1.00
2018-11-20T21:26:52.982Z,1.10
2018-11-20T21:29:52.643Z,1.10
2018-11-20T21:32:52.415Z,1.20
2018-11-20T21:35:51.645Z,1.20
2018-11-20T21:41:13.302Z,1.20
2018-11-20T21:44:00.801Z,1.30
2018-11-20T21:47:07.730Z,1.30
2018-11-20T21:50:13.922Z,1.30
2018-11-20T21:53:13.565Z,1.30
2018-11-20T21:56:01.125Z,1.30
2018-11-20T21:59:04.019Z,1.30
2018-11-20T22:02:04.018Z,1.30
2018-11-20T22:05:00.561Z,1.30
2018-11-20T22:08:00.245Z,1.30
2018-11-20T22:10:59.721Z,1.30
2018-11-20T22:14:02.795Z,1.30
2018-11-20T22:16:54.449Z,1.30
2018-11-20T22:19:54.389Z,1.30
2018-11-20T22:22:41.901Z,1.30
2018-11-20T22:25:49.645Z,1.30
2018-11-20T22:28:37.188Z,1.30
2018-11-20T22:31:44.152Z,1.30
2018-11-20T22:34:43.831Z,1.30
2018-11-20T22:37:44.853Z,1.20
2018-11-20T22:40:51.916Z,1.20
2018-11-20T22:43:51.404Z,1.20
2018-11-20T22:46:57.553Z,1.20
2018-11-20T22:49:47.037Z,1.20
2018-11-20T22:52:46.608Z,1.20
2018-11-20T22:55:53.529Z,1.20
2018-11-20T22:58:51.244Z,1.20
2018-11-20T23:01:50.929Z,1.20
2018-11-20T23:04:50.800Z,1.10
2018-11-20T23:07:50.421Z,1.10
2018-11-20T23:10:31.084Z,1.10
2018-11-20T23:12:59.513Z,1.10
2018-11-20T23:15:47.289Z,1.10
2018-11-20T23:18:28.969Z,1.10
2018-11-20T23:21:09.997Z,1.10
2018-11-20T23:23:50.901Z,1.10
2018-11-20T23:26:29.816Z,1.10
2018-11-20T23:28:58.244Z,1.10
2018-11-20T23:31:46.020Z,1.10
2018-11-20T23:34:33.831Z,1.10
2018-11-20T23:37:14.956Z,1.10
2018-11-20T23:39:54.300Z,1.10
2018-11-20T23:42:23.965Z,1.00
2018-11-20T23:48:05.252Z,1.10
2018-11-20T23:50:45.544Z,1.00
2018-11-20T23:53:25.800Z,1.00
2018-11-20T23:56:06.151Z,1.00
2018-11-20T23:58:46.996Z,1.00
